createdAt,value
2023-07-23T00:00:52.718Z,1.30
2023-07-23T00:03:21.775Z,2.05
2023-07-23T00:05:51.306Z,1.30
2023-07-23T00:08:18.236Z,1.10
2023-07-23T00:10:45.114Z,1.17
2023-07-23T00:13:11.904Z,1.38
2023-07-23T00:15:38.991Z,1.40
2023-07-23T00:18:06.037Z,1.30
2023-07-23T00:20:32.945Z,2.15
2023-07-23T00:22:59.898Z,1.10
2023-07-23T00:25:27.152Z,0.88
2023-07-23T00:27:54.468Z,1.10
2023-07-23T00:30:25.507Z,0.90
2023-07-23T00:32:53.682Z,1.13
2023-07-23T00:35:22.093Z,2.13
2023-07-23T00:37:49.491Z,1.55
2023-07-23T00:40:16.712Z,0.82
2023-07-23T00:42:45.354Z,1.33
2023-07-23T00:45:13.778Z,1.02
2023-07-23T00:47:41.305Z,1.02
2023-07-23T00:50:09.096Z,1.00
2023-07-23T00:52:36.973Z,1.00
2023-07-23T00:55:04.382Z,4.15
2023-07-23T00:57:31.574Z,0.80
2023-07-23T00:59:58.965Z,1.15
2023-07-23T01:02:29.258Z,1.50
2023-07-23T01:04:57.260Z,1.45
2023-07-23T01:07:26.539Z,0.80
2023-07-23T01:09:54.892Z,0.90
2023-07-23T01:12:22.470Z,0.93
2023-07-23T01:14:49.969Z,0.73
2023-07-23T01:17:22.502Z,1.98
2023-07-23T01:20:06.246Z,2.10
2023-07-23T01:22:38.240Z,1.10
2023-07-23T01:25:08.510Z,2.30
2023-07-23T01:27:38.367Z,1.23
2023-07-23T01:30:09.567Z,1.60
2023-07-23T01:32:38.379Z,1.45
2023-07-23T01:35:11.208Z,1.23
2023-07-23T01:37:38.650Z,1.38
2023-07-23T01:40:06.443Z,1.20
2023-07-23T01:42:34.876Z,1.45
2023-07-23T01:45:05.654Z,1.30
2023-07-23T01:47:33.029Z,1.55
2023-07-23T01:50:00.186Z,2.00
2023-07-23T01:52:27.845Z,2.05
2023-07-23T01:54:56.508Z,1.63
2023-07-23T01:57:23.462Z,1.70
2023-07-23T01:59:51.094Z,1.60
2023-07-23T02:02:18.300Z,2.00
2023-07-23T02:04:45.992Z,2.00
2023-07-23T02:07:13.107Z,1.50
2023-07-23T02:09:41.485Z,2.47
2023-07-23T02:12:12.044Z,1.75
2023-07-23T02:14:39.202Z,3.78
2023-07-23T02:17:06.467Z,2.40
2023-07-23T02:19:33.635Z,1.80
2023-07-23T02:22:00.798Z,1.48
2023-07-23T02:24:28.729Z,3.70
2023-07-23T02:26:56.039Z,1.80
2023-07-23T02:29:23.903Z,5.43
2023-07-23T02:31:51.045Z,2.00
2023-07-23T02:34:18.311Z,2.05
2023-07-23T02:36:48.782Z,1.85
2023-07-23T02:39:16.153Z,2.25
2023-07-23T02:41:43.236Z,1.85
2023-07-23T02:44:10.431Z,2.00
2023-07-23T02:46:37.734Z,1.90
2023-07-23T02:49:05.665Z,1.95
2023-07-23T02:51:34.929Z,1.90
2023-07-23T02:54:02.517Z,3.20
2023-07-23T02:56:29.403Z,2.47
2023-07-23T02:58:56.709Z,1.90
2023-07-23T03:01:24.992Z,1.88
2023-07-23T03:03:53.290Z,2.45
2023-07-23T03:06:20.433Z,5.43
2023-07-23T03:08:47.751Z,1.77
2023-07-23T03:11:15.018Z,2.03
2023-07-23T03:13:45.063Z,2.05
2023-07-23T03:16:13.623Z,1.95
2023-07-23T03:18:40.704Z,1.90
2023-07-23T03:21:08.171Z,2.38
2023-07-23T03:23:36.673Z,2.22
2023-07-23T03:26:03.786Z,2.97
2023-07-23T03:28:30.889Z,3.00
2023-07-23T03:30:58.236Z,3.50
2023-07-23T03:33:25.222Z,2.10
2023-07-23T03:35:52.357Z,2.03
2023-07-23T03:38:20.630Z,2.25
2023-07-23T03:40:47.911Z,2.00
2023-07-23T03:43:18.350Z,2.00
2023-07-23T03:45:47.693Z,2.22
2023-07-23T03:48:14.937Z,2.20
2023-07-23T03:50:45.679Z,2.28
2023-07-23T03:53:12.968Z,2.47
2023-07-23T03:55:40.136Z,2.17
2023-07-23T03:58:13.724Z,2.17
2023-07-23T04:00:42.154Z,2.58
2023-07-23T04:03:09.156Z,3.30
2023-07-23T04:05:36.860Z,3.00
2023-07-23T04:08:03.822Z,2.30
2023-07-23T04:10:30.886Z,2.53
2023-07-23T04:12:58.869Z,2.65
2023-07-23T04:15:29.382Z,2.63
2023-07-23T04:17:56.258Z,2.53
2023-07-23T04:20:23.706Z,4.55
2023-07-23T04:22:50.741Z,2.35
2023-07-23T04:25:17.554Z,4.40
2023-07-23T04:27:44.805Z,3.28
2023-07-23T04:30:15.336Z,3.20
2023-07-23T04:32:44.922Z,2.83
2023-07-23T04:35:12.705Z,3.00
2023-07-23T04:37:43.624Z,3.10
2023-07-23T04:40:13.988Z,4.70
2023-07-23T04:42:42.495Z,3.20
2023-07-23T04:45:13.145Z,3.58
2023-07-23T04:47:41.750Z,3.33
2023-07-23T04:50:12.090Z,4.10
2023-07-23T04:52:39.559Z,3.60
2023-07-23T04:55:09.602Z,3.47
2023-07-23T04:57:37.239Z,2.83
2023-07-23T05:00:07.624Z,6.15
2023-07-23T05:02:35.897Z,3.20
2023-07-23T05:05:03.186Z,2.97
2023-07-23T05:07:30.352Z,3.97
2023-07-23T05:09:57.296Z,3.35
2023-07-23T05:12:26.297Z,3.22
2023-07-23T05:14:58.168Z,3.80
2023-07-23T05:17:27.612Z,4.53
2023-07-23T05:19:55.314Z,3.08
2023-07-23T05:22:22.842Z,3.28
2023-07-23T05:24:50.683Z,5.32
2023-07-23T05:27:18.058Z,3.58
2023-07-23T05:29:45.488Z,2.90
2023-07-23T05:32:13.072Z,3.30
2023-07-23T05:34:42.078Z,2.85
2023-07-23T05:37:10.142Z,2.67
2023-07-23T05:40:00.535Z,2.60
2023-07-23T05:45:08.601Z,3.67
2023-07-23T05:47:38.261Z,3.95
2023-07-23T05:50:08.297Z,2.75
2023-07-23T05:52:35.634Z,2.90
2023-07-23T05:55:04.091Z,2.83
2023-07-23T05:57:32.721Z,2.90
2023-07-23T06:00:00.348Z,2.90
2023-07-23T06:02:55.420Z,2.90
2023-07-23T06:05:25.194Z,2.70
2023-07-23T06:07:52.308Z,2.40
2023-07-23T06:10:22.810Z,2.55
2023-07-23T06:12:50.123Z,2.80
2023-07-23T06:15:21.011Z,2.90
2023-07-23T06:17:48.884Z,2.33
2023-07-23T06:20:16.220Z,2.28
2023-07-23T06:22:46.701Z,2.10
2023-07-23T06:25:18.551Z,2.35
2023-07-23T06:27:46.175Z,2.33
2023-07-23T06:30:13.411Z,4.50
2023-07-23T06:32:44.575Z,2.28
2023-07-23T06:35:13.914Z,2.25
2023-07-23T06:37:44.444Z,2.67
2023-07-23T06:40:18.331Z,3.63
2023-07-23T06:42:57.156Z,2.38
2023-07-23T06:45:29.364Z,3.00
2023-07-23T06:48:00.516Z,2.47
2023-07-23T06:50:31.065Z,6.55
2023-07-23T06:53:10.886Z,2.45
2023-07-23T06:56:07.812Z,2.67
2023-07-23T06:58:39.214Z,3.28
2023-07-23T07:01:11.989Z,2.95
2023-07-23T07:03:50.352Z,4.32
2023-07-23T07:06:21.477Z,3.45
2023-07-23T07:09:13.443Z,2.40
2023-07-23T07:11:40.818Z,4.32
2023-07-23T07:14:17.462Z,2.42
2023-07-23T07:16:45.221Z,2.80
2023-07-23T07:19:12.360Z,2.92
2023-07-23T07:21:42.178Z,2.97
2023-07-23T07:24:12.674Z,2.65
2023-07-23T07:26:46.066Z,2.80
2023-07-23T07:29:13.507Z,6.95
2023-07-23T07:31:44.020Z,2.58
2023-07-23T07:34:11.769Z,2.95
2023-07-23T07:36:40.502Z,3.67
2023-07-23T07:39:09.935Z,2.95
2023-07-23T07:41:45.561Z,3.13
2023-07-23T07:44:13.629Z,6.50
2023-07-23T07:46:47.867Z,2.50
2023-07-23T07:49:16.023Z,2.60
2023-07-23T07:54:36.843Z,2.67
2023-07-23T07:57:11.991Z,2.90
2023-07-23T07:59:39.689Z,2.47
2023-07-23T08:02:07.952Z,2.30
2023-07-23T08:04:35.769Z,2.70
2023-07-23T08:07:04.055Z,2.53
2023-07-23T08:09:35.459Z,2.78
2023-07-23T08:12:05.958Z,2.78
2023-07-23T08:14:42.937Z,4.78
2023-07-23T08:17:42.260Z,2.63
2023-07-23T08:20:09.219Z,2.83
2023-07-23T08:22:49.377Z,2.97
2023-07-23T08:25:59.019Z,3.47
2023-07-23T08:29:20.601Z,2.47
2023-07-23T08:31:53.854Z,2.33
2023-07-23T08:34:27.474Z,2.50
2023-07-23T08:37:00.482Z,2.80
2023-07-23T08:39:34.784Z,2.92
2023-07-23T08:42:22.773Z,2.88
2023-07-23T08:45:11.362Z,3.25
2023-07-23T08:47:39.948Z,3.15
2023-07-23T08:50:15.307Z,2.17
2023-07-23T08:52:48.579Z,4.80
2023-07-23T08:55:17.060Z,2.63
2023-07-23T08:57:50.168Z,2.67
2023-07-23T09:00:17.270Z,3.30
2023-07-23T09:02:48.200Z,2.47
2023-07-23T09:05:33.175Z,3.80
2023-07-23T09:08:01.768Z,2.65
2023-07-23T09:10:29.331Z,2.28
2023-07-23T09:12:59.502Z,3.83
2023-07-23T09:15:26.752Z,3.03
2023-07-23T09:17:54.010Z,3.08
2023-07-23T09:20:23.489Z,2.28
2023-07-23T09:22:50.642Z,3.22
2023-07-23T09:25:20.998Z,2.60
2023-07-23T09:27:48.418Z,2.50
2023-07-23T09:30:23.446Z,2.20
2023-07-23T09:33:07.783Z,2.60
2023-07-23T09:35:40.213Z,2.20
2023-07-23T09:38:09.886Z,2.55
2023-07-23T09:40:44.995Z,2.50
2023-07-23T09:43:13.643Z,2.17
2023-07-23T09:45:42.627Z,2.70
2023-07-23T09:48:16.918Z,2.92
2023-07-23T09:50:52.299Z,3.22
2023-07-23T09:55:48.269Z,2.90
2023-07-23T09:58:18.713Z,2.60
2023-07-23T10:00:46.159Z,4.88
2023-07-23T10:03:16.472Z,2.13
2023-07-23T10:05:43.974Z,2.40
2023-07-23T10:08:14.988Z,3.63
2023-07-23T10:10:43.092Z,2.45
2023-07-23T10:13:09.928Z,2.85
2023-07-23T10:15:39.040Z,2.60
2023-07-23T10:18:08.339Z,2.35
2023-07-23T10:20:36.451Z,2.63
2023-07-23T10:23:09.627Z,1.92
2023-07-23T10:25:41.027Z,2.58
2023-07-23T10:28:10.640Z,3.65
2023-07-23T10:30:38.665Z,3.13
2023-07-23T10:33:12.554Z,3.78
2023-07-23T10:36:02.575Z,2.65
2023-07-23T10:38:37.223Z,2.75
2023-07-23T10:41:04.378Z,1.98
2023-07-23T10:43:44.001Z,1.70
2023-07-23T10:46:21.879Z,1.95
2023-07-23T10:48:56.352Z,2.00
2023-07-23T10:51:25.149Z,1.73
2023-07-23T10:54:08.864Z,2.15
2023-07-23T10:56:37.502Z,2.33
2023-07-23T10:59:14.869Z,2.00
2023-07-23T11:01:43.228Z,3.28
2023-07-23T11:04:12.158Z,2.00
2023-07-23T11:06:42.636Z,1.98
2023-07-23T11:09:11.964Z,2.33
2023-07-23T11:11:41.835Z,2.25
2023-07-23T11:14:24.555Z,2.72
2023-07-23T11:16:54.138Z,1.95
2023-07-23T11:19:22.845Z,3.85
2023-07-23T11:21:52.265Z,3.55
2023-07-23T11:24:21.211Z,1.88
2023-07-23T11:26:51.870Z,6.68
2023-07-23T11:29:19.573Z,2.03
2023-07-23T11:31:46.774Z,2.30
2023-07-23T11:34:14.094Z,3.30
2023-07-23T11:36:44.130Z,2.50
2023-07-23T11:39:12.358Z,2.15
2023-07-23T11:41:41.866Z,1.88
2023-07-23T11:44:10.567Z,2.55
2023-07-23T11:46:57.058Z,2.22
2023-07-23T11:49:31.769Z,2.28
2023-07-23T11:52:02.097Z,2.08
2023-07-23T11:54:29.344Z,3.33
2023-07-23T11:56:57.217Z,1.77
2023-07-23T11:59:24.394Z,1.92
2023-07-23T12:01:59.981Z,3.08
2023-07-23T12:04:28.454Z,21.50
2023-07-23T12:06:57.498Z,7.55
2023-07-23T12:09:25.366Z,9.80
2023-07-23T12:12:01.881Z,21.42
2023-07-23T12:14:30.742Z,14.77
2023-07-23T12:16:59.396Z,5.63
2023-07-23T12:19:26.383Z,4.72
2023-07-23T12:22:01.729Z,16.20
2023-07-23T12:24:37.054Z,41.00
2023-07-23T12:27:09.098Z,12.35
2023-07-23T12:29:43.193Z,6.80
2023-07-23T12:32:14.172Z,3.00
2023-07-23T12:35:02.258Z,2.80
2023-07-23T12:37:34.221Z,2.63
2023-07-23T12:40:10.060Z,2.00
2023-07-23T12:42:42.421Z,3.67
2023-07-23T12:45:20.832Z,2.38
2023-07-23T12:47:53.256Z,4.25
2023-07-23T12:50:22.733Z,2.20
2023-07-23T12:52:51.228Z,1.92
2023-07-23T12:55:19.941Z,1.70
2023-07-23T12:57:52.601Z,1.60
2023-07-23T13:00:20.211Z,2.03
2023-07-23T13:02:47.319Z,1.52
2023-07-23T13:05:15.371Z,1.55
2023-07-23T13:07:42.634Z,1.60
2023-07-23T13:10:10.086Z,2.60
2023-07-23T13:12:38.635Z,1.90
2023-07-23T13:15:08.312Z,2.05
2023-07-23T13:17:38.618Z,1.88
2023-07-23T13:20:09.005Z,1.63
2023-07-23T13:22:58.054Z,2.75
2023-07-23T13:25:28.533Z,1.92
2023-07-23T13:27:55.783Z,1.98
2023-07-23T13:30:37.611Z,2.22
2023-07-23T13:33:09.520Z,1.98
2023-07-23T13:35:42.084Z,1.55
2023-07-23T13:38:11.346Z,2.35
2023-07-23T13:40:40.168Z,1.85
2023-07-23T13:43:07.628Z,2.78
2023-07-23T13:45:34.704Z,1.33
2023-07-23T13:48:01.621Z,1.52
2023-07-23T13:50:53.621Z,1.63
2023-07-23T13:53:20.832Z,1.13
2023-07-23T13:55:49.785Z,1.33
2023-07-23T13:58:20.062Z,1.42
2023-07-23T14:00:47.109Z,1.95
2023-07-23T14:03:14.340Z,1.60
2023-07-23T14:05:44.897Z,2.65
2023-07-23T14:08:12.133Z,1.55
2023-07-23T14:10:39.201Z,1.58
2023-07-23T14:13:09.077Z,3.15
2023-07-23T14:15:48.600Z,2.13
2023-07-23T14:18:18.203Z,2.75
2023-07-23T14:20:45.797Z,1.30
2023-07-23T14:23:15.786Z,1.08
2023-07-23T14:26:13.695Z,1.45
2023-07-23T14:28:47.960Z,1.27
2023-07-23T14:31:17.514Z,1.33
2023-07-23T14:33:45.394Z,1.52
2023-07-23T14:37:58.841Z,1.73
2023-07-23T14:39:50.089Z,1.30
2023-07-23T14:42:17.467Z,1.40
2023-07-23T14:44:44.494Z,1.20
2023-07-23T14:47:11.831Z,1.52
2023-07-23T14:49:40.688Z,1.92
2023-07-23T14:52:07.911Z,1.20
2023-07-23T14:54:35.143Z,1.63
2023-07-23T14:57:13.248Z,1.60
2023-07-23T14:59:40.380Z,2.70
2023-07-23T15:02:07.924Z,2.25
2023-07-23T15:04:36.136Z,2.33
2023-07-23T15:07:05.311Z,1.50
2023-07-23T15:09:32.669Z,1.90
2023-07-23T15:12:00.340Z,1.35
2023-07-23T15:14:27.901Z,2.10
2023-07-23T15:16:55.434Z,3.15
2023-07-23T15:19:28.161Z,1.60
2023-07-23T15:21:55.537Z,1.60
2023-07-23T15:24:24.461Z,1.48
2023-07-23T15:26:56.467Z,2.42
2023-07-23T15:29:30.346Z,2.38
2023-07-23T15:31:57.476Z,1.67
2023-07-23T15:34:24.644Z,1.58
2023-07-23T15:36:52.388Z,1.65
2023-07-23T15:39:19.418Z,1.63
2023-07-23T15:41:47.570Z,1.65
2023-07-23T15:44:17.456Z,1.70
2023-07-23T15:46:44.754Z,2.25
2023-07-23T15:49:17.513Z,1.90
2023-07-23T15:51:50.400Z,1.98
2023-07-23T15:54:20.065Z,6.05
2023-07-23T15:56:48.031Z,1.67
2023-07-23T15:59:18.399Z,2.38
2023-07-23T16:01:45.620Z,1.35
2023-07-23T16:04:15.384Z,1.75
2023-07-23T16:06:48.609Z,2.53
2023-07-23T16:09:20.266Z,2.45
2023-07-23T16:11:47.305Z,1.98
2023-07-23T16:14:14.318Z,1.90
2023-07-23T16:16:47.584Z,4.75
2023-07-23T16:19:15.354Z,3.72
2023-07-23T16:21:50.202Z,2.15
2023-07-23T16:24:18.056Z,2.17
2023-07-23T16:26:50.730Z,2.00
2023-07-23T16:29:18.706Z,2.95
2023-07-23T16:32:08.397Z,2.10
2023-07-23T16:34:45.132Z,1.95
2023-07-23T16:37:15.543Z,2.03
2023-07-23T16:39:49.809Z,2.25
2023-07-23T16:42:21.635Z,3.70
2023-07-23T16:44:52.605Z,2.45
2023-07-23T16:47:23.092Z,2.65
2023-07-23T16:49:53.286Z,2.65
2023-07-23T16:52:28.809Z,3.28
2023-07-23T16:54:59.259Z,1.98
2023-07-23T16:57:50.292Z,2.00
2023-07-23T17:00:47.695Z,2.47
2023-07-23T17:03:17.544Z,2.47
2023-07-23T17:05:46.435Z,1.90
2023-07-23T17:08:15.882Z,2.22
2023-07-23T17:10:42.785Z,2.10
2023-07-23T17:13:12.522Z,2.85
2023-07-23T17:15:39.533Z,2.38
2023-07-23T17:18:06.536Z,2.30
2023-07-23T17:20:33.601Z,2.97
2023-07-23T17:23:02.251Z,2.50
2023-07-23T17:25:30.412Z,3.13
2023-07-23T17:27:57.662Z,5.55
2023-07-23T17:30:29.396Z,3.78
2023-07-23T17:32:59.108Z,4.20
2023-07-23T17:35:26.461Z,2.78
2023-07-23T17:37:54.078Z,2.63
2023-07-23T17:40:42.178Z,7.35
2023-07-23T17:43:17.297Z,11.43
2023-07-23T17:48:19.636Z,5.97
2023-07-23T17:50:50.069Z,6.97
2023-07-23T17:53:17.538Z,4.75
2023-07-23T17:55:48.000Z,3.13
2023-07-23T17:58:18.974Z,10.18
2023-07-23T18:00:49.165Z,3.08
2023-07-23T18:03:20.261Z,5.70
2023-07-23T18:05:52.069Z,4.30
2023-07-23T18:08:21.326Z,5.13
2023-07-23T18:10:54.233Z,3.45
2023-07-23T18:13:34.379Z,5.35
2023-07-23T18:16:05.207Z,3.75
2023-07-23T18:18:35.538Z,6.18
2023-07-23T18:21:04.431Z,7.15
2023-07-23T18:23:32.080Z,2.92
2023-07-23T18:26:05.834Z,5.45
2023-07-23T18:28:37.972Z,6.68
2023-07-23T18:31:18.274Z,3.42
2023-07-23T18:33:58.038Z,3.42
2023-07-23T18:36:33.712Z,7.35
2023-07-23T18:39:02.529Z,3.42
2023-07-23T18:41:33.839Z,3.45
2023-07-23T18:44:32.306Z,5.38
2023-07-23T18:47:01.749Z,4.43
2023-07-23T18:49:46.500Z,3.95
2023-07-23T18:52:14.178Z,5.53
2023-07-23T18:55:17.225Z,7.40
2023-07-23T18:58:17.104Z,4.40
2023-07-23T19:00:48.780Z,3.65
2023-07-23T19:03:22.432Z,3.78
2023-07-23T19:05:54.017Z,3.67
2023-07-23T19:08:23.545Z,10.77
2023-07-23T19:11:17.110Z,3.20
2023-07-23T19:13:46.939Z,4.40
2023-07-23T19:16:17.909Z,4.18
2023-07-23T19:18:49.370Z,6.07
2023-07-23T19:21:59.378Z,3.97
2023-07-23T19:24:37.269Z,4.15
2023-07-23T19:27:14.876Z,5.13
2023-07-23T19:29:49.709Z,5.22
2023-07-23T19:32:42.361Z,6.45
2023-07-23T19:35:21.772Z,6.80
2023-07-23T19:38:19.963Z,8.10
2023-07-23T19:41:10.307Z,3.90
2023-07-23T19:43:58.334Z,8.18
2023-07-23T19:46:44.390Z,5.20
2023-07-23T19:49:11.692Z,5.28
2023-07-23T19:51:40.608Z,6.80
2023-07-23T19:54:07.761Z,6.13
2023-07-23T19:56:38.193Z,4.70
2023-07-23T19:59:11.956Z,4.90
2023-07-23T20:01:43.527Z,5.45
2023-07-23T20:04:14.338Z,7.80
2023-07-23T20:06:41.696Z,5.13
2023-07-23T20:09:36.257Z,13.70
2023-07-23T20:12:09.412Z,6.22
2023-07-23T20:14:42.497Z,6.82
2023-07-23T20:17:09.840Z,9.90
2023-07-23T20:19:45.691Z,10.38
2023-07-23T20:22:13.167Z,10.07
2023-07-23T20:24:43.550Z,10.93
2023-07-23T20:27:10.973Z,14.73
2023-07-23T20:29:39.550Z,7.63
2023-07-23T20:32:09.508Z,6.28
2023-07-23T20:34:38.585Z,5.68
2023-07-23T20:37:06.025Z,6.60
2023-07-23T20:39:36.235Z,10.73
2023-07-23T20:42:03.922Z,8.25
2023-07-23T20:44:30.987Z,6.45
2023-07-23T20:46:58.094Z,6.03
2023-07-23T20:49:31.305Z,7.90
2023-07-23T20:52:03.710Z,9.80
2023-07-23T20:54:30.789Z,7.43
2023-07-23T20:56:57.916Z,8.45
2023-07-23T20:59:26.936Z,8.30
2023-07-23T21:02:00.342Z,6.28
2023-07-23T21:04:27.676Z,7.15
2023-07-23T21:06:56.575Z,6.70
2023-07-23T21:09:23.479Z,6.95
2023-07-23T21:11:50.464Z,7.35
2023-07-23T21:14:22.815Z,9.07
2023-07-23T21:16:49.806Z,6.90
2023-07-23T21:19:17.341Z,8.45
2023-07-23T21:21:44.547Z,7.18
2023-07-23T21:24:14.620Z,9.35
2023-07-23T21:26:43.922Z,5.80
2023-07-23T21:29:14.175Z,7.45
2023-07-23T21:31:41.316Z,11.23
2023-07-23T21:34:08.436Z,15.90
2023-07-23T21:36:35.535Z,15.63
2023-07-23T21:39:02.703Z,9.70
2023-07-23T21:41:33.365Z,8.32
2023-07-23T21:44:00.371Z,7.28
2023-07-23T21:46:27.381Z,5.93
2023-07-23T21:48:54.671Z,6.22
2023-07-23T21:51:21.749Z,5.75
2023-07-23T21:53:48.552Z,8.55
2023-07-23T21:56:15.339Z,6.00
2023-07-23T21:58:42.079Z,5.82
2023-07-23T22:01:09.581Z,5.28
2023-07-23T22:03:36.765Z,5.95
2023-07-23T22:06:07.315Z,6.20
2023-07-23T22:08:35.009Z,10.80
2023-07-23T22:11:02.406Z,8.48
2023-07-23T22:13:31.923Z,6.10
2023-07-23T22:15:58.959Z,6.50
2023-07-23T22:18:26.073Z,5.30
2023-07-23T22:20:53.196Z,4.95
2023-07-23T22:23:20.245Z,5.43
2023-07-23T22:25:52.776Z,5.72
2023-07-23T22:28:19.728Z,4.68
2023-07-23T22:30:46.978Z,5.25
2023-07-23T22:33:14.083Z,4.43
2023-07-23T22:35:41.176Z,4.28
2023-07-23T22:38:08.169Z,6.63
2023-07-23T22:40:35.323Z,4.70
2023-07-23T22:43:05.342Z,4.70
2023-07-23T22:45:34.676Z,4.85
2023-07-23T22:48:01.929Z,6.40
2023-07-23T22:50:29.874Z,5.25
2023-07-23T22:52:56.952Z,5.10
2023-07-23T22:55:23.849Z,6.28
2023-07-23T22:57:50.750Z,5.10
2023-07-23T23:00:19.068Z,7.85
2023-07-23T23:02:46.871Z,7.53
2023-07-23T23:05:14.743Z,9.73
2023-07-23T23:07:41.818Z,10.50
2023-07-23T23:10:09.328Z,6.88
2023-07-23T23:12:36.361Z,9.27
2023-07-23T23:15:04.764Z,6.18
2023-07-23T23:17:31.971Z,6.65
2023-07-23T23:19:59.101Z,5.85
2023-07-23T23:22:26.094Z,5.72
2023-07-23T23:24:54.193Z,5.70
2023-07-23T23:27:22.420Z,5.95
2023-07-23T23:29:49.462Z,5.78
2023-07-23T23:32:16.950Z,7.38
2023-07-23T23:34:43.992Z,5.43
2023-07-23T23:37:13.703Z,4.97
2023-07-23T23:39:40.624Z,5.47
2023-07-23T23:42:07.913Z,4.78
2023-07-23T23:44:34.965Z,4.80
2023-07-23T23:47:02.389Z,4.97
2023-07-23T23:49:29.404Z,4.95
2023-07-23T23:51:56.455Z,5.05
2023-07-23T23:54:23.870Z,4.78
2023-07-23T23:57:01.326Z,7.43
2023-07-23T23:59:30.259Z,4.88
